sensor_id;sensor_type;location;lat;lon;timestamp;pressure;altitude;pressure_sealevel;temperature;humidity
65534;BME280;53640;55.838;37.184;2023-02-28T00:01:06;99637.59;;;-9.55;61.17
65534;BME280;53640;55.838;37.184;2023-02-28T00:03:32;99655.00;;;-9.38;61.25
65534;BME280;53640;55.838;37.184;2023-02-28T00:06:06;99633.03;;;-9.51;61.41
65534;BME280;53640;55.838;37.184;2023-02-28T00:08:32;99606.38;;;-9.59;61.42
65534;BME280;53640;55.838;37.184;2023-02-28T00:11:03;99659.97;;;-9.33;61.36
65534;BME280;53640;55.838;37.184;2023-02-28T00:13:31;99631.69;;;-9.43;61.24
65534;BME280;53640;55.838;37.184;2023-02-28T00:16:06;99643.59;;;-9.37;61.33
65534;BME280;53640;55.838;37.184;2023-02-28T00:18:34;99638.50;;;-9.40;61.44
65534;BME280;53640;55.838;37.184;2023-02-28T00:21:00;99610.63;;;-9.57;61.54
65534;BME280;53640;55.838;37.184;2023-02-28T00:23:27;99595.22;;;-9.63;61.57
65534;BME280;53640;55.838;37.184;2023-02-28T00:25:54;99622.03;;;-9.42;61.42
65534;BME280;53640;55.838;37.184;2023-02-28T00:28:20;99608.94;;;-9.58;61.59
65534;BME280;53640;55.838;37.184;2023-02-28T00:30:47;99625.41;;;-9.40;61.70
65534;BME280;53640;55.838;37.184;2023-02-28T00:33:13;99619.94;;;-9.51;61.72
65534;BME280;53640;55.838;37.184;2023-02-28T00:35:40;99620.69;;;-9.49;61.67
65534;BME280;53640;55.838;37.184;2023-02-28T00:38:09;99623.03;;;-9.45;61.40
65534;BME280;53640;55.838;37.184;2023-02-28T00:40:35;99634.19;;;-9.41;61.67
65534;BME280;53640;55.838;37.184;2023-02-28T00:43:02;99612.91;;;-9.51;61.79
65534;BME280;53640;55.838;37.184;2023-02-28T00:45:30;99638.44;;;-9.38;61.99
65534;BME280;53640;55.838;37.184;2023-02-28T00:47:57;99626.00;;;-9.35;61.87
65534;BME280;53640;55.838;37.184;2023-02-28T00:50:24;99623.22;;;-9.32;61.88
65534;BME280;53640;55.838;37.184;2023-02-28T00:52:50;99608.66;;;-9.37;61.88
65534;BME280;53640;55.838;37.184;2023-02-28T00:55:16;99618.06;;;-9.33;61.70
65534;BME280;53640;55.838;37.184;2023-02-28T00:57:43;99575.63;;;-9.56;61.73
65534;BME280;53640;55.838;37.184;2023-02-28T01:00:09;99579.94;;;-9.39;61.68
65534;BME280;53640;55.838;37.184;2023-02-28T01:02:37;99537.84;;;-9.68;61.85
65534;BME280;53640;55.838;37.184;2023-02-28T01:05:03;99575.81;;;-9.43;61.43
65534;BME280;53640;55.838;37.184;2023-02-28T01:07:30;99550.63;;;-9.61;61.55
65534;BME280;53640;55.838;37.184;2023-02-28T01:09:56;99585.34;;;-9.42;61.64
65534;BME280;53640;55.838;37.184;2023-02-28T01:12:24;99578.44;;;-9.43;61.87
65534;BME280;53640;55.838;37.184;2023-02-28T01:14:51;99569.22;;;-9.50;61.77
65534;BME280;53640;55.838;37.184;2023-02-28T01:17:17;99566.91;;;-9.41;61.87
65534;BME280;53640;55.838;37.184;2023-02-28T01:19:44;99563.53;;;-9.43;61.75
65534;BME280;53640;55.838;37.184;2023-02-28T01:22:10;99525.16;;;-9.59;61.60
65534;BME280;53640;55.838;37.184;2023-02-28T01:24:37;99551.13;;;-9.39;61.55
65534;BME280;53640;55.838;37.184;2023-02-28T01:27:04;99506.69;;;-9.72;61.68
65534;BME280;53640;55.838;37.184;2023-02-28T01:29:30;99533.22;;;-9.47;61.67
65534;BME280;53640;55.838;37.184;2023-02-28T01:31:56;99433.56;;;-10.07;61.58
65534;BME280;53640;55.838;37.184;2023-02-28T01:34:25;99424.09;;;-10.09;61.57
65534;BME280;53640;55.838;37.184;2023-02-28T01:36:51;99502.38;;;-9.57;61.34
65534;BME280;53640;55.838;37.184;2023-02-28T01:39:19;99509.78;;;-9.50;61.30
65534;BME280;53640;55.838;37.184;2023-02-28T01:41:45;99502.66;;;-9.48;61.45
65534;BME280;53640;55.838;37.184;2023-02-28T01:47:15;99503.72;;;-9.50;61.22
65534;BME280;53640;55.838;37.184;2023-02-28T01:49:42;99453.28;;;-9.85;61.34
65534;BME280;53640;55.838;37.184;2023-02-28T01:52:10;99464.94;;;-9.75;61.51
65534;BME280;53640;55.838;37.184;2023-02-28T01:54:40;99489.88;;;-9.68;61.68
65534;BME280;53640;55.838;37.184;2023-02-28T01:57:10;99464.53;;;-9.83;61.55
65534;BME280;53640;55.838;37.184;2023-02-28T01:59:52;99444.19;;;-9.94;61.61
65534;BME280;53640;55.838;37.184;2023-02-28T02:02:22;99451.03;;;-9.92;61.76
65534;BME280;53640;55.838;37.184;2023-02-28T02:04:58;99481.25;;;-9.70;61.75
65534;BME280;53640;55.838;37.184;2023-02-28T02:07:31;99453.72;;;-9.77;61.76
65534;BME280;53640;55.838;37.184;2023-02-28T02:16:24;99464.00;;;-9.74;62.09
65534;BME280;53640;55.838;37.184;2023-02-28T02:36:00;99447.59;;;-9.92;62.44
65534;BME280;53640;55.838;37.184;2023-02-28T02:38:49;99425.19;;;-9.98;62.39
65534;BME280;53640;55.838;37.184;2023-02-28T02:42:05;99381.72;;;-10.16;62.25
65534;BME280;53640;55.838;37.184;2023-02-28T02:44:24;99428.16;;;-9.88;62.33
65534;BME280;53640;55.838;37.184;2023-02-28T02:46:58;99411.25;;;-9.98;62.59
65534;BME280;53640;55.838;37.184;2023-02-28T02:49:31;99397.31;;;-9.99;62.45
65534;BME280;53640;55.838;37.184;2023-02-28T02:52:03;99414.22;;;-9.89;62.29
65534;BME280;53640;55.838;37.184;2023-02-28T02:54:37;99367.63;;;-10.14;62.41
65534;BME280;53640;55.838;37.184;2023-02-28T02:57:08;99372.09;;;-10.00;62.31
65534;BME280;53640;55.838;37.184;2023-02-28T02:59:38;99398.69;;;-9.92;62.42
65534;BME280;53640;55.838;37.184;2023-02-28T03:02:09;99356.38;;;-10.16;62.52
65534;BME280;53640;55.838;37.184;2023-02-28T03:04:51;99319.22;;;-10.37;62.22
65534;BME280;53640;55.838;37.184;2023-02-28T03:07:21;99396.56;;;-10.01;62.59
65534;BME280;53640;55.838;37.184;2023-02-28T03:09:56;99371.50;;;-10.05;62.68
65534;BME280;53640;55.838;37.184;2023-02-28T03:12:31;99368.13;;;-10.07;62.42
65534;BME280;53640;55.838;37.184;2023-02-28T03:15:24;99336.56;;;-10.20;62.74
65534;BME280;53640;55.838;37.184;2023-02-28T03:18:14;99361.78;;;-10.03;62.49
65534;BME280;53640;55.838;37.184;2023-02-28T03:24:03;99353.00;;;-10.02;62.35
65534;BME280;53640;55.838;37.184;2023-02-28T03:26:33;99340.00;;;-10.03;62.19
65534;BME280;53640;55.838;37.184;2023-02-28T03:29:23;99286.19;;;-10.39;62.49
65534;BME280;53640;55.838;37.184;2023-02-28T03:32:02;99347.94;;;-10.05;62.23
65534;BME280;53640;55.838;37.184;2023-02-28T03:34:36;99325.34;;;-10.22;62.74
65534;BME280;53640;55.838;37.184;2023-02-28T03:37:12;99309.41;;;-10.33;62.55
65534;BME280;53640;55.838;37.184;2023-02-28T03:39:44;99341.28;;;-10.10;62.50
65534;BME280;53640;55.838;37.184;2023-02-28T03:42:14;99344.41;;;-10.20;62.62
65534;BME280;53640;55.838;37.184;2023-02-28T03:44:48;99342.47;;;-10.16;62.86
65534;BME280;53640;55.838;37.184;2023-02-28T03:47:23;99329.88;;;-10.09;62.62
65534;BME280;53640;55.838;37.184;2023-02-28T03:49:57;99277.19;;;-10.33;62.29
65534;BME280;53640;55.838;37.184;2023-02-28T03:52:36;99314.19;;;-10.09;62.38
65534;BME280;53640;55.838;37.184;2023-02-28T03:55:09;99314.00;;;-10.06;62.41
65534;BME280;53640;55.838;37.184;2023-02-28T03:57:41;99304.81;;;-10.14;62.48
65534;BME280;53640;55.838;37.184;2023-02-28T04:00:38;99252.88;;;-10.35;62.30
65534;BME280;53640;55.838;37.184;2023-02-28T04:03:03;99276.63;;;-10.24;62.36
65534;BME280;53640;55.838;37.184;2023-02-28T04:05:31;99297.91;;;-10.15;62.33
65534;BME280;53640;55.838;37.184;2023-02-28T04:08:07;99262.22;;;-10.31;62.13
65534;BME280;53640;55.838;37.184;2023-02-28T04:10:34;99290.44;;;-10.06;62.29
65534;BME280;53640;55.838;37.184;2023-02-28T04:13:01;99260.09;;;-10.25;61.84
65534;BME280;53640;55.838;37.184;2023-02-28T04:15:28;99185.84;;;-10.68;61.86
65534;BME280;53640;55.838;37.184;2023-02-28T04:17:54;99246.53;;;-10.31;61.68
65534;BME280;53640;55.838;37.184;2023-02-28T04:20:21;99244.00;;;-10.33;61.82
65534;BME280;53640;55.838;37.184;2023-02-28T04:22:47;99283.53;;;-10.07;61.86
65534;BME280;53640;55.838;37.184;2023-02-28T04:25:14;99224.63;;;-10.45;61.66
65534;BME280;53640;55.838;37.184;2023-02-28T04:27:40;99287.22;;;-10.12;61.92
65534;BME280;53640;55.838;37.184;2023-02-28T04:30:07;99232.94;;;-10.38;61.71
65534;BME280;53640;55.838;37.184;2023-02-28T04:32:33;99194.88;;;-10.58;61.64
65534;BME280;53640;55.838;37.184;2023-02-28T04:35:00;99258.38;;;-10.10;61.72
65534;BME280;53640;55.838;37.184;2023-02-28T04:37:26;99230.88;;;-10.17;61.64
65534;BME280;53640;55.838;37.184;2023-02-28T04:39:54;99228.59;;;-10.23;61.65
65534;BME280;53640;55.838;37.184;2023-02-28T04:42:21;99186.72;;;-10.38;61.74
65534;BME280;53640;55.838;37.184;2023-02-28T04:44:47;99216.44;;;-10.24;61.42
65534;BME280;53640;55.838;37.184;2023-02-28T04:47:19;99152.94;;;-10.56;61.27
65534;BME280;53640;55.838;37.184;2023-02-28T04:49:53;99144.44;;;-10.60;61.18
65534;BME280;53640;55.838;37.184;2023-02-28T04:52:20;99112.19;;;-10.75;61.18
65534;BME280;53640;55.838;37.184;2023-02-28T04:55:42;99177.75;;;-10.33;61.20
65534;BME280;53640;55.838;37.184;2023-02-28T04:58:45;99124.03;;;-10.69;61.70
65534;BME280;53640;55.838;37.184;2023-02-28T05:01:21;99039.53;;;-11.14;61.61
65534;BME280;53640;55.838;37.184;2023-02-28T05:04:05;99194.72;;;-10.10;61.52
65534;BME280;53640;55.838;37.184;2023-02-28T05:10:51;99060.16;;;-10.94;61.29
65534;BME280;53640;55.838;37.184;2023-02-28T05:13:48;99183.03;;;-10.05;61.34
65534;BME280;53640;55.838;37.184;2023-02-28T05:17:16;99048.28;;;-10.99;61.54
65534;BME280;53640;55.838;37.184;2023-02-28T05:20:06;99076.69;;;-10.79;60.65
65534;BME280;53640;55.838;37.184;2023-02-28T05:22:37;99054.56;;;-10.73;61.08
65534;BME280;53640;55.838;37.184;2023-02-28T05:25:05;98990.50;;;-10.95;60.89
65534;BME280;53640;55.838;37.184;2023-02-28T05:31:01;99152.28;;;-9.73;60.43
65534;BME280;53640;55.838;37.184;2023-02-28T05:33:47;99074.16;;;-10.07;60.54
65534;BME280;53640;55.838;37.184;2023-02-28T05:36:26;98998.53;;;-10.55;60.45
65534;BME280;53640;55.838;37.184;2023-02-28T05:39:44;99155.63;;;-9.56;60.10
65534;BME280;53640;55.838;37.184;2023-02-28T05:46:55;98955.28;;;-10.32;59.35
65534;BME280;53640;55.838;37.184;2023-02-28T05:49:26;98987.84;;;-10.09;59.95
65534;BME280;53640;55.838;37.184;2023-02-28T05:51:56;99113.66;;;-9.28;59.49
65534;BME280;53640;55.838;37.184;2023-02-28T05:54:24;98940.59;;;-10.34;58.91
65534;BME280;53640;55.838;37.184;2023-02-28T05:57:17;98995.94;;;-9.85;58.47
65534;BME280;53640;55.838;37.184;2023-02-28T05:59:49;99053.28;;;-9.26;58.48
65534;BME280;53640;55.838;37.184;2023-02-28T06:02:51;98921.28;;;-10.05;58.08
65534;BME280;53640;55.838;37.184;2023-02-28T06:05:32;98960.28;;;-9.73;58.43
65534;BME280;53640;55.838;37.184;2023-02-28T06:08:19;98939.59;;;-9.78;58.72
65534;BME280;53640;55.838;37.184;2023-02-28T06:13:56;99070.50;;;-8.82;58.05
65534;BME280;53640;55.838;37.184;2023-02-28T06:16:25;99045.53;;;-8.75;57.56
65534;BME280;53640;55.838;37.184;2023-02-28T06:18:53;99053.28;;;-8.74;57.64
65534;BME280;53640;55.838;37.184;2023-02-28T06:21:22;99030.72;;;-8.76;57.22
65534;BME280;53640;55.838;37.184;2023-02-28T06:23:48;99025.84;;;-8.68;56.94
65534;BME280;53640;55.838;37.184;2023-02-28T06:26:18;99006.59;;;-8.81;57.17
65534;BME280;53640;55.838;37.184;2023-02-28T06:28:47;99036.31;;;-8.55;57.00
65534;BME280;53640;55.838;37.184;2023-02-28T06:31:15;98973.66;;;-8.85;56.47
65534;BME280;53640;55.838;37.184;2023-02-28T06:33:43;99001.69;;;-8.60;57.44
65534;BME280;53640;55.838;37.184;2023-02-28T06:36:12;98957.84;;;-8.71;56.76
65534;BME280;53640;55.838;37.184;2023-02-28T06:38:42;98944.50;;;-8.68;56.92
65534;BME280;53640;55.838;37.184;2023-02-28T06:41:42;98945.53;;;-8.58;56.50
65534;BME280;53640;55.838;37.184;2023-02-28T06:44:17;98890.25;;;-8.80;56.48
65534;BME280;53640;55.838;37.184;2023-02-28T06:46:48;98909.63;;;-8.57;56.75
65534;BME280;53640;55.838;37.184;2023-02-28T06:49:17;98842.03;;;-8.91;56.58
65534;BME280;53640;55.838;37.184;2023-02-28T06:51:46;98917.25;;;-8.29;56.87
65534;BME280;53640;55.838;37.184;2023-02-28T06:55:08;98864.44;;;-8.61;56.68
65534;BME280;53640;55.838;37.184;2023-02-28T06:57:45;98772.63;;;-9.10;56.81
65534;BME280;53640;55.838;37.184;2023-02-28T07:00:18;98783.94;;;-8.97;56.91
65534;BME280;53640;55.838;37.184;2023-02-28T07:04:05;98840.66;;;-8.47;57.48
65534;BME280;53640;55.838;37.184;2023-02-28T07:07:19;98789.88;;;-8.82;57.33
65534;BME280;53640;55.838;37.184;2023-02-28T07:09:49;98755.66;;;-8.81;56.90
65534;BME280;53640;55.838;37.184;2023-02-28T07:12:19;98831.41;;;-8.39;56.75
65534;BME280;53640;55.838;37.184;2023-02-28T07:14:46;98748.00;;;-8.84;56.69
65534;BME280;53640;55.838;37.184;2023-02-28T07:17:21;98758.75;;;-8.63;56.95
65534;BME280;53640;55.838;37.184;2023-02-28T07:22:35;98774.66;;;-8.29;55.71
65534;BME280;53640;55.838;37.184;2023-02-28T07:25:01;98839.41;;;-7.93;56.50
65534;BME280;53640;55.838;37.184;2023-02-28T07:27:30;98894.97;;;-7.51;57.99
65534;BME280;53640;55.838;37.184;2023-02-28T07:29:58;98865.53;;;-7.56;56.93
65534;BME280;53640;55.838;37.184;2023-02-28T07:32:29;98808.72;;;-7.93;57.23
65534;BME280;53640;55.838;37.184;2023-02-28T07:34:56;98786.53;;;-7.88;56.68
65534;BME280;53640;55.838;37.184;2023-02-28T07:37:23;98765.88;;;-7.93;57.86
65534;BME280;53640;55.838;37.184;2023-02-28T07:39:51;98861.72;;;-7.17;57.47
65534;BME280;53640;55.838;37.184;2023-02-28T07:42:20;98860.38;;;-7.23;58.07
65534;BME280;53640;55.838;37.184;2023-02-28T07:44:48;98709.38;;;-7.99;57.52
65534;BME280;53640;55.838;37.184;2023-02-28T07:47:14;98867.34;;;-6.99;57.33
65534;BME280;53640;55.838;37.184;2023-02-28T07:49:42;98824.50;;;-7.35;57.87
65534;BME280;53640;55.838;37.184;2023-02-28T07:52:09;98855.50;;;-6.93;58.16
65534;BME280;53640;55.838;37.184;2023-02-28T07:54:35;98854.78;;;-6.84;57.48
65534;BME280;53640;55.838;37.184;2023-02-28T07:57:02;98788.53;;;-7.12;57.83
65534;BME280;53640;55.838;37.184;2023-02-28T07:59:29;98730.22;;;-7.39;57.85
65534;BME280;53640;55.838;37.184;2023-02-28T08:01:57;98757.72;;;-7.10;58.70
65534;BME280;53640;55.838;37.184;2023-02-28T08:04:23;98814.78;;;-6.44;58.47
65534;BME280;53640;55.838;37.184;2023-02-28T08:06:50;98753.63;;;-6.91;58.00
65534;BME280;53640;55.838;37.184;2023-02-28T08:09:20;98787.78;;;-6.58;58.25
65534;BME280;53640;55.838;37.184;2023-02-28T08:11:47;98837.63;;;-6.34;57.88
65534;BME280;53640;55.838;37.184;2023-02-28T08:15:00;98793.66;;;-6.54;56.90
65534;BME280;53640;55.838;37.184;2023-02-28T08:18:46;98808.03;;;-6.26;57.45
65534;BME280;53640;55.838;37.184;2023-02-28T08:21:50;98653.16;;;-7.29;57.13
65534;BME280;53640;55.838;37.184;2023-02-28T08:29:06;98752.91;;;-6.82;57.99
65534;BME280;53640;55.838;37.184;2023-02-28T08:31:38;98689.34;;;-7.21;57.21
65534;BME280;53640;55.838;37.184;2023-02-28T08:34:08;98837.97;;;-6.27;57.64
65534;BME280;53640;55.838;37.184;2023-02-28T08:37:04;98699.50;;;-7.05;57.40
65534;BME280;53640;55.838;37.184;2023-02-28T08:39:35;98865.94;;;-6.04;58.34
65534;BME280;53640;55.838;37.184;2023-02-28T08:42:03;98787.47;;;-6.32;58.30
65534;BME280;53640;55.838;37.184;2023-02-28T08:44:30;98829.44;;;-6.08;58.63
65534;BME280;53640;55.838;37.184;2023-02-28T08:46:56;98794.25;;;-6.18;57.49
65534;BME280;53640;55.838;37.184;2023-02-28T08:49:23;98788.63;;;-6.25;57.70
65534;BME280;53640;55.838;37.184;2023-02-28T08:51:49;98849.31;;;-5.83;58.43
65534;BME280;53640;55.838;37.184;2023-02-28T08:54:19;98834.47;;;-5.84;57.90
65534;BME280;53640;55.838;37.184;2023-02-28T08:56:46;98824.19;;;-5.87;58.16
65534;BME280;53640;55.838;37.184;2023-02-28T08:59:14;98784.25;;;-6.04;57.85
65534;BME280;53640;55.838;37.184;2023-02-28T09:01:41;98825.81;;;-5.75;58.00
65534;BME280;53640;55.838;37.184;2023-02-28T09:04:09;98817.63;;;-5.72;57.93
65534;BME280;53640;55.838;37.184;2023-02-28T09:06:37;98803.50;;;-5.71;57.85
65534;BME280;53640;55.838;37.184;2023-02-28T09:09:04;98773.84;;;-5.84;58.27
65534;BME280;53640;55.838;37.184;2023-02-28T09:11:33;98790.38;;;-5.61;57.97
65534;BME280;53640;55.838;37.184;2023-02-28T09:14:01;98785.94;;;-5.61;57.93
65534;BME280;53640;55.838;37.184;2023-02-28T09:16:33;98753.22;;;-5.79;58.00
65534;BME280;53640;55.838;37.184;2023-02-28T09:19:01;98778.94;;;-5.71;57.91
65534;BME280;53640;55.838;37.184;2023-02-28T09:21:27;98742.38;;;-5.86;58.66
65534;BME280;53640;55.838;37.184;2023-02-28T09:23:54;98801.97;;;-5.53;58.68
65534;BME280;53640;55.838;37.184;2023-02-28T09:26:26;98790.00;;;-5.57;58.07
65534;BME280;53640;55.838;37.184;2023-02-28T09:28:55;98815.09;;;-5.41;58.12
65534;BME280;53640;55.838;37.184;2023-02-28T09:31:26;98684.03;;;-6.23;57.34
65534;BME280;53640;55.838;37.184;2023-02-28T09:33:57;98642.44;;;-6.40;57.79
65534;BME280;53640;55.838;37.184;2023-02-28T09:36:25;98709.25;;;-6.00;57.95
65534;BME280;53640;55.838;37.184;2023-02-28T09:38:52;98739.53;;;-5.73;57.53
65534;BME280;53640;55.838;37.184;2023-02-28T09:41:25;98767.38;;;-5.59;58.15
65534;BME280;53640;55.838;37.184;2023-02-28T09:44:02;98735.63;;;-5.79;58.11
65534;BME280;53640;55.838;37.184;2023-02-28T09:46:39;98743.91;;;-5.62;58.35
65534;BME280;53640;55.838;37.184;2023-02-28T09:49:12;98721.41;;;-5.66;58.45
65534;BME280;53640;55.838;37.184;2023-02-28T09:52:02;98652.69;;;-6.05;58.58
65534;BME280;53640;55.838;37.184;2023-02-28T09:54:32;98740.69;;;-5.45;58.90
65534;BME280;53640;55.838;37.184;2023-02-28T09:57:16;98746.06;;;-5.46;58.26
65534;BME280;53640;55.838;37.184;2023-02-28T10:00:06;98632.69;;;-6.08;58.66
65534;BME280;53640;55.838;37.184;2023-02-28T10:02:52;98738.28;;;-5.48;59.39
65534;BME280;53640;55.838;37.184;2023-02-28T10:08:19;98698.19;;;-5.52;58.47
65534;BME280;53640;55.838;37.184;2023-02-28T10:10:59;98691.53;;;-5.46;58.83
65534;BME280;53640;55.838;37.184;2023-02-28T10:22:17;98697.38;;;-5.42;59.93
65534;BME280;53640;55.838;37.184;2023-02-28T10:24:48;98681.97;;;-5.68;59.73
65534;BME280;53640;55.838;37.184;2023-02-28T10:27:22;98665.88;;;-5.75;59.64
65534;BME280;53640;55.838;37.184;2023-02-28T10:29:54;98656.03;;;-5.72;60.00
65534;BME280;53640;55.838;37.184;2023-02-28T10:32:25;98652.47;;;-5.62;59.43
65534;BME280;53640;55.838;37.184;2023-02-28T10:37:28;98648.75;;;-5.50;59.10
65534;BME280;53640;55.838;37.184;2023-02-28T10:39:54;98679.28;;;-5.26;59.20
65534;BME280;53640;55.838;37.184;2023-02-28T10:42:29;98676.44;;;-5.34;59.81
65534;BME280;53640;55.838;37.184;2023-02-28T10:45:17;98640.59;;;-5.46;60.26
65534;BME280;53640;55.838;37.184;2023-02-28T10:47:55;98614.91;;;-5.54;60.00
65534;BME280;53640;55.838;37.184;2023-02-28T10:50:39;98617.41;;;-5.53;60.57
65534;BME280;53640;55.838;37.184;2023-02-28T10:55:42;98654.44;;;-5.14;60.71
65534;BME280;53640;55.838;37.184;2023-02-28T11:01:17;98602.44;;;-5.42;60.88
65534;BME280;53640;55.838;37.184;2023-02-28T11:03:44;98524.59;;;-5.87;60.78
65534;BME280;53640;55.838;37.184;2023-02-28T11:06:31;98621.34;;;-5.28;60.85
65534;BME280;53640;55.838;37.184;2023-02-28T11:09:04;98517.84;;;-5.80;61.10
65534;BME280;53640;55.838;37.184;2023-02-28T11:11:47;98639.59;;;-5.05;61.31
65534;BME280;53640;55.838;37.184;2023-02-28T11:14:31;98630.16;;;-4.98;60.70
65534;BME280;53640;55.838;37.184;2023-02-28T11:17:13;98596.66;;;-5.17;60.39
65534;BME280;53640;55.838;37.184;2023-02-28T11:19:46;98597.38;;;-5.15;60.44
65534;BME280;53640;55.838;37.184;2023-02-28T11:22:37;98623.06;;;-4.97;60.92
65534;BME280;53640;55.838;37.184;2023-02-28T11:25:30;98525.81;;;-5.51;61.12
65534;BME280;53640;55.838;37.184;2023-02-28T11:28:00;98558.06;;;-5.28;60.84
65534;BME280;53640;55.838;37.184;2023-02-28T11:30:33;98598.34;;;-4.96;61.58
65534;BME280;53640;55.838;37.184;2023-02-28T11:33:15;98563.34;;;-5.08;61.69
65534;BME280;53640;55.838;37.184;2023-02-28T11:35:45;98610.59;;;-4.86;61.29
65534;BME280;53640;55.838;37.184;2023-02-28T11:38:14;98603.22;;;-4.82;61.66
65534;BME280;53640;55.838;37.184;2023-02-28T11:40:46;98585.75;;;-4.73;61.64
65534;BME280;53640;55.838;37.184;2023-02-28T11:51:47;98573.91;;;-4.79;62.78
65534;BME280;53640;55.838;37.184;2023-02-28T11:56:58;98578.78;;;-4.94;63.70
65534;BME280;53640;55.838;37.184;2023-02-28T12:08:07;98521.16;;;-5.18;63.82
65534;BME280;53640;55.838;37.184;2023-02-28T12:13:41;98546.00;;;-5.11;64.40
65534;BME280;53640;55.838;37.184;2023-02-28T12:27:26;98494.88;;;-5.19;65.08
65534;BME280;53640;55.838;37.184;2023-02-28T12:30:27;98528.06;;;-4.97;65.37
65534;BME280;53640;55.838;37.184;2023-02-28T12:33:08;98515.59;;;-5.05;65.17
65534;BME280;53640;55.838;37.184;2023-02-28T12:35:47;98518.66;;;-5.00;65.86
65534;BME280;53640;55.838;37.184;2023-02-28T12:38:29;98537.13;;;-4.81;65.38
65534;BME280;53640;55.838;37.184;2023-02-28T12:41:08;98541.56;;;-4.81;65.38
65534;BME280;53640;55.838;37.184;2023-02-28T12:43:55;98461.84;;;-5.14;65.63
65534;BME280;53640;55.838;37.184;2023-02-28T12:46:34;98514.03;;;-4.69;65.34
65534;BME280;53640;55.838;37.184;2023-02-28T12:52:01;98480.56;;;-4.88;65.39
65534;BME280;53640;55.838;37.184;2023-02-28T12:54:40;98491.09;;;-4.68;65.18
65534;BME280;53640;55.838;37.184;2023-02-28T12:57:31;98467.53;;;-4.99;65.57
65534;BME280;53640;55.838;37.184;2023-02-28T13:00:19;98483.88;;;-4.76;65.82
65534;BME280;53640;55.838;37.184;2023-02-28T13:03:01;98496.94;;;-4.65;65.70
65534;BME280;53640;55.838;37.184;2023-02-28T13:06:03;98479.00;;;-4.61;65.19
65534;BME280;53640;55.838;37.184;2023-02-28T13:17:17;98479.94;;;-4.53;65.69
65534;BME280;53640;55.838;37.184;2023-02-28T13:19:55;98453.03;;;-4.66;65.36
65534;BME280;53640;55.838;37.184;2023-02-28T13:28:03;98462.25;;;-4.42;65.44
65534;BME280;53640;55.838;37.184;2023-02-28T13:38:46;98450.41;;;-4.29;65.45
65534;BME280;53640;55.838;37.184;2023-02-28T13:44:02;98421.00;;;-4.53;65.38
65534;BME280;53640;55.838;37.184;2023-02-28T13:46:31;98405.44;;;-4.56;65.43
65534;BME280;53640;55.838;37.184;2023-02-28T13:49:27;98401.28;;;-4.59;65.75
65534;BME280;53640;55.838;37.184;2023-02-28T13:52:12;98353.09;;;-4.98;65.45
65534;BME280;53640;55.838;37.184;2023-02-28T13:54:56;98432.28;;;-4.23;65.35
65534;BME280;53640;55.838;37.184;2023-02-28T13:57:47;98446.34;;;-4.23;65.33
65534;BME280;53640;55.838;37.184;2023-02-28T14:00:42;98439.94;;;-4.20;65.28
65534;BME280;53640;55.838;37.184;2023-02-28T14:06:38;98443.94;;;-4.16;65.43
65534;BME280;53640;55.838;37.184;2023-02-28T14:09:15;98445.44;;;-4.14;65.56
65534;BME280;53640;55.838;37.184;2023-02-28T14:11:46;98401.50;;;-4.42;65.58
65534;BME280;53640;55.838;37.184;2023-02-28T14:17:03;98394.25;;;-4.40;66.13
65534;BME280;53640;55.838;37.184;2023-02-28T14:19:34;98439.88;;;-4.11;66.06
65534;BME280;53640;55.838;37.184;2023-02-28T14:27:38;98418.06;;;-3.95;65.77
65534;BME280;53640;55.838;37.184;2023-02-28T14:33:27;98401.72;;;-3.98;66.35
65534;BME280;53640;55.838;37.184;2023-02-28T14:39:07;98391.47;;;-4.11;67.05
65534;BME280;53640;55.838;37.184;2023-02-28T14:41:38;98390.81;;;-4.13;66.96
65534;BME280;53640;55.838;37.184;2023-02-28T14:44:24;98344.78;;;-4.38;67.01
65534;BME280;53640;55.838;37.184;2023-02-28T14:46:56;98396.84;;;-4.03;67.03
65534;BME280;53640;55.838;37.184;2023-02-28T14:52:19;98385.97;;;-4.00;67.26
65534;BME280;53640;55.838;37.184;2023-02-28T14:54:53;98390.16;;;-3.97;67.19
65534;BME280;53640;55.838;37.184;2023-02-28T14:57:23;98370.88;;;-4.08;67.42
65534;BME280;53640;55.838;37.184;2023-02-28T15:02:53;98398.69;;;-3.86;67.33
65534;BME280;53640;55.838;37.184;2023-02-28T15:05:28;98395.22;;;-3.86;67.69
65534;BME280;53640;55.838;37.184;2023-02-28T15:08:22;98378.75;;;-3.80;67.76
65534;BME280;53640;55.838;37.184;2023-02-28T15:11:00;98368.38;;;-3.91;67.58
65534;BME280;53640;55.838;37.184;2023-02-28T15:13:40;98382.75;;;-3.76;67.38
65534;BME280;53640;55.838;37.184;2023-02-28T15:16:15;98363.56;;;-3.78;67.70
65534;BME280;53640;55.838;37.184;2023-02-28T15:18:58;98316.06;;;-4.06;67.72
65534;BME280;53640;55.838;37.184;2023-02-28T15:21:27;98359.06;;;-3.68;67.30
65534;BME280;53640;55.838;37.184;2023-02-28T15:24:10;98346.34;;;-3.82;67.29
65534;BME280;53640;55.838;37.184;2023-02-28T15:26:43;98335.72;;;-3.90;67.45
65534;BME280;53640;55.838;37.184;2023-02-28T15:29:15;98354.66;;;-3.77;67.44
65534;BME280;53640;55.838;37.184;2023-02-28T15:31:50;98328.75;;;-3.91;67.34
65534;BME280;53640;55.838;37.184;2023-02-28T15:36:54;98358.41;;;-3.62;67.45
65534;BME280;53640;55.838;37.184;2023-02-28T15:39:25;98321.22;;;-3.86;67.59
65534;BME280;53640;55.838;37.184;2023-02-28T15:42:16;98370.53;;;-3.59;67.65
65534;BME280;53640;55.838;37.184;2023-02-28T15:44:43;98353.91;;;-3.69;67.62
65534;BME280;53640;55.838;37.184;2023-02-28T15:47:24;98327.56;;;-3.79;67.72
65534;BME280;53640;55.838;37.184;2023-02-28T15:50:13;98364.31;;;-3.50;67.50
65534;BME280;53640;55.838;37.184;2023-02-28T15:52:43;98312.66;;;-3.80;67.57
65534;BME280;53640;55.838;37.184;2023-02-28T15:55:26;98364.31;;;-3.50;67.22
65534;BME280;53640;55.838;37.184;2023-02-28T15:57:55;98365.06;;;-3.40;67.35
65534;BME280;53640;55.838;37.184;2023-02-28T16:00:27;98349.94;;;-3.47;67.30
65534;BME280;53640;55.838;37.184;2023-02-28T16:02:55;98317.63;;;-3.59;67.40
65534;BME280;53640;55.838;37.184;2023-02-28T16:05:29;98297.25;;;-3.67;67.35
65534;BME280;53640;55.838;37.184;2023-02-28T16:08:14;98317.69;;;-3.51;67.58